Time;durP1;ratioP1;P1;durP2;ratioP2;P2;SDS_P1;SDS_P2;PMS_P1;PMS_P2;Temp;Humidity;BMP_temperature;BMP_pressure;BME280_temperature;BME280_humidity;BME280_pressure;Samples;Min_cycle;Max_cycle;Signal;HPM_P1;HPM_P2
2021/08/19 00:01:37;;;;;;;3.42;0.90;;;16.80;99.90;;;;;;5029755;28;20030;-86
2021/08/19 00:04:03;;;;;;;2.20;0.75;;;16.80;99.90;;;;;;5071299;28;20026;-86
2021/08/19 00:06:29;;;;;;;1.90;0.85;;;16.80;99.90;;;;;;5065740;28;20037;-85
2021/08/19 00:08:55;;;;;;;3.05;1.08;;;16.80;99.90;;;;;;5067850;28;20040;-86
2021/08/19 00:11:20;;;;;;;2.03;0.98;;;16.70;99.90;;;;;;5035262;28;20052;-85
2021/08/19 00:13:46;;;;;;;3.92;0.85;;;16.60;99.90;;;;;;5027693;28;20030;-86
2021/08/19 00:16:12;;;;;;;1.83;0.82;;;16.60;99.90;;;;;;5028355;28;20056;-85
2021/08/19 00:18:38;;;;;;;2.95;0.90;;;16.60;99.90;;;;;;5029767;28;20439;-86
2021/08/19 00:21:05;;;;;;;3.15;0.82;;;16.60;99.90;;;;;;5026869;28;20053;-85
2021/08/19 00:23:31;;;;;;;2.22;0.82;;;16.60;99.90;;;;;;5028624;28;20037;-86
2021/08/19 00:25:57;;;;;;;4.68;0.98;;;16.60;99.90;;;;;;5044352;28;20057;-86
2021/08/19 00:28:22;;;;;;;2.22;0.90;;;16.60;99.90;;;;;;5035854;28;20092;-86
2021/08/19 00:30:51;;;;;;;2.25;1.00;;;16.40;99.90;;;;;;5028226;28;20026;-86
2021/08/19 00:33:17;;;;;;;2.17;0.98;;;16.60;99.90;;;;;;5028295;28;20030;-86
2021/08/19 00:35:43;;;;;;;2.45;0.90;;;16.60;99.90;;;;;;5042724;28;20120;-86
2021/08/19 00:38:08;;;;;;;3.95;1.02;;;16.60;99.90;;;;;;5026884;28;20026;-87
2021/08/19 00:40:34;;;;;;;3.03;1.13;;;16.60;99.90;;;;;;5028631;28;20022;-86
2021/08/19 00:43:03;;;;;;;1.77;0.70;;;16.70;99.90;;;;;;5028889;28;20057;-86
2021/08/19 00:45:29;;;;;;;2.25;0.85;;;16.70;99.90;;;;;;5027334;28;20053;-86
2021/08/19 00:47:54;;;;;;;2.97;1.20;;;16.70;99.90;;;;;;5027609;28;20036;-85
2021/08/19 00:50:20;;;;;;;2.42;1.00;;;16.70;99.90;;;;;;5027260;28;20050;-86
2021/08/19 00:52:46;;;;;;;1.67;0.80;;;16.70;99.90;;;;;;5026808;28;20405;-86
2021/08/19 00:55:16;;;;;;;1.83;0.85;;;16.70;99.90;;;;;;5042416;28;20041;-85
2021/08/19 00:57:46;;;;;;;2.38;0.98;;;16.70;99.90;;;;;;5037836;28;20033;-86
2021/08/19 01:00:14;;;;;;;2.83;1.00;;;16.50;99.90;;;;;;5053962;28;20167;-86
2021/08/19 01:02:50;;;;;;;2.15;0.88;;;16.60;99.90;;;;;;5054473;28;20098;-86
2021/08/19 01:05:22;;;;;;;2.65;0.90;;;16.50;99.90;;;;;;5064672;28;20021;-86
2021/08/19 01:07:48;;;;;;;;;;;16.50;99.90;;;;;;5046046;28;20040;-86
2021/08/19 01:10:13;;;;;;;2.53;1.00;;;16.50;99.90;;;;;;5047094;28;19905;-87
2021/08/19 01:12:44;;;;;;;2.40;1.10;;;16.60;99.90;;;;;;5046006;28;20018;-86
2021/08/19 01:15:11;;;;;;;2.90;0.87;;;16.50;99.90;;;;;;5040533;28;20045;-86
2021/08/19 01:17:36;;;;;;;2.15;0.80;;;16.50;99.90;;;;;;5024662;28;20029;-87
2021/08/19 01:20:03;;;;;;;2.47;0.85;;;16.50;99.90;;;;;;5025279;28;20091;-86
2021/08/19 01:22:29;;;;;;;2.88;1.17;;;16.50;99.90;;;;;;5043624;28;20025;-86
2021/08/19 01:24:55;;;;;;;1.60;0.70;;;16.50;99.90;;;;;;5043832;28;20021;-86
2021/08/19 01:27:22;;;;;;;3.53;1.10;;;16.50;99.90;;;;;;5044467;28;20044;-85
2021/08/19 01:29:49;;;;;;;3.20;0.80;;;16.50;99.90;;;;;;5045072;28;20037;-85
2021/08/19 01:32:15;;;;;;;2.25;0.80;;;16.50;99.90;;;;;;5034637;28;20456;-85
2021/08/19 01:34:41;;;;;;;2.65;0.98;;;16.50;99.90;;;;;;5025748;28;20064;-86
2021/08/19 01:37:08;;;;;;;2.13;0.80;;;16.50;99.90;;;;;;5025989;28;20026;-85
2021/08/19 01:39:35;;;;;;;1.95;0.90;;;16.50;99.90;;;;;;5024780;28;20033;-85
2021/08/19 01:42:01;;;;;;;3.63;0.93;;;16.40;99.90;;;;;;5026116;28;20030;-85
2021/08/19 01:44:27;;;;;;;2.63;1.10;;;16.30;99.90;;;;;;5026274;28;20049;-86
2021/08/19 01:46:54;;;;;;;2.67;0.77;;;16.30;99.90;;;;;;5041541;28;20057;-86
2021/08/19 01:49:20;;;;;;;2.50;0.75;;;16.20;99.90;;;;;;5040941;28;20049;-86
2021/08/19 01:51:47;;;;;;;2.53;0.95;;;16.10;99.90;;;;;;5026414;28;20034;-86
2021/08/19 01:54:12;;;;;;;1.67;0.73;;;16.00;99.90;;;;;;5026385;28;20052;-86
2021/08/19 01:56:38;;;;;;;2.55;0.70;;;15.90;99.90;;;;;;5026062;28;20085;-85
2021/08/19 01:59:04;;;;;;;2.47;0.70;;;15.90;99.90;;;;;;5025671;28;20164;-85
2021/08/19 02:01:30;;;;;;;1.98;0.80;;;15.90;99.90;;;;;;5041315;28;20026;-85
2021/08/19 02:03:55;;;;;;;2.13;0.80;;;15.90;99.90;;;;;;5041244;28;20022;-85
2021/08/19 02:06:21;;;;;;;1.75;0.73;;;16.00;99.90;;;;;;5045354;28;20037;-86
2021/08/19 02:08:47;;;;;;;1.80;0.77;;;16.00;99.90;;;;;;5025978;28;20050;-85
2021/08/19 02:11:14;;;;;;;2.08;0.82;;;16.00;99.90;;;;;;5040863;28;20029;-85
2021/08/19 02:13:41;;;;;;;2.70;0.85;;;15.90;99.90;;;;;;5026009;28;20179;-85
2021/08/19 02:16:07;;;;;;;2.00;0.80;;;16.00;99.90;;;;;;5026677;28;20048;-86
2021/08/19 02:18:32;;;;;;;3.47;0.88;;;15.90;99.90;;;;;;5024639;28;20030;-85
2021/08/19 02:20:58;;;;;;;6.03;0.80;;;15.90;99.90;;;;;;5026280;28;20022;-86
2021/08/19 02:23:24;;;;;;;2.38;1.02;;;15.90;99.90;;;;;;5025816;28;20088;-86
2021/08/19 02:25:49;;;;;;;1.67;0.57;;;16.00;99.90;;;;;;5059903;28;20021;-85
2021/08/19 02:28:15;;;;;;;2.30;0.90;;;16.20;99.90;;;;;;5057268;28;20028;-85
2021/08/19 02:30:41;;;;;;;4.10;0.80;;;15.90;99.90;;;;;;5064755;28;20092;-85
2021/08/19 02:33:06;;;;;;;1.75;0.70;;;16.00;99.90;;;;;;5039889;28;20026;-85
2021/08/19 02:35:33;;;;;;;2.25;0.80;;;15.90;99.90;;;;;;5026490;28;20410;-85
2021/08/19 02:38:01;;;;;;;1.63;0.75;;;15.70;99.90;;;;;;5025800;28;20084;-85
2021/08/19 02:40:28;;;;;;;2.13;0.70;;;15.80;99.90;;;;;;5041202;28;20034;-86
2021/08/19 02:42:53;;;;;;;1.45;0.68;;;15.80;99.90;;;;;;5045625;28;20049;-85
2021/08/19 02:45:20;;;;;;;1.85;0.77;;;15.80;99.90;;;;;;5046100;28;20033;-87
2021/08/19 02:47:46;;;;;;;1.13;0.63;;;15.80;99.90;;;;;;5046943;28;20040;-85
2021/08/19 02:50:13;;;;;;;1.98;0.80;;;15.80;99.90;;;;;;5062319;28;20097;-85
2021/08/19 02:52:39;;;;;;;2.35;0.70;;;15.80;99.90;;;;;;5047042;28;20033;-86
2021/08/19 02:55:06;;;;;;;1.75;0.80;;;15.80;99.90;;;;;;5062344;23;20072;-81
2021/08/19 02:57:32;;;;;;;1.05;0.57;;;15.80;99.90;;;;;;5010292;28;20171;-82
2021/08/19 02:59:58;;;;;;;2.58;0.60;;;15.90;99.90;;;;;;5014644;28;20025;-81
2021/08/19 03:02:24;;;;;;;2.50;0.80;;;15.90;99.90;;;;;;5016672;28;20117;-81
2021/08/19 03:04:49;;;;;;;1.35;0.70;;;16.00;99.90;;;;;;4998591;28;20107;-81
2021/08/19 03:07:15;;;;;;;1.92;0.65;;;16.00;99.90;;;;;;5016959;28;20029;-82
2021/08/19 03:09:41;;;;;;;1.50;0.70;;;16.00;99.90;;;;;;5015470;28;20076;-82
2021/08/19 03:12:07;;;;;;;2.53;0.85;;;16.00;99.90;;;;;;5017870;28;20025;-83
2021/08/19 03:14:33;;;;;;;2.30;0.73;;;16.00;99.90;;;;;;5003006;28;20099;-83
2021/08/19 03:17:00;;;;;;;1.67;0.77;;;16.10;99.90;;;;;;4996372;28;20028;-84
2021/08/19 03:19:26;;;;;;;1.23;0.50;;;16.10;99.90;;;;;;4997681;28;20030;-83
2021/08/19 03:21:51;;;;;;;1.65;0.70;;;16.00;99.90;;;;;;4998173;28;20560;-83
2021/08/19 03:24:17;;;;;;;2.20;0.65;;;16.10;99.90;;;;;;5011090;28;20068;-82
2021/08/19 03:26:42;;;;;;;2.33;0.60;;;16.00;99.90;;;;;;4999556;28;20034;-83
2021/08/19 03:29:08;;;;;;;2.45;0.68;;;16.00;99.90;;;;;;5016377;28;20037;-83
2021/08/19 03:31:34;;;;;;;1.52;0.60;;;16.00;99.90;;;;;;5015006;28;20128;-83
2021/08/19 03:34:01;;;;;;;1.92;0.80;;;16.10;99.90;;;;;;5003465;28;20046;-82
2021/08/19 03:36:26;;;;;;;1.83;0.75;;;16.10;99.90;;;;;;4996838;28;20046;-82
2021/08/19 03:38:52;;;;;;;1.20;0.65;;;16.10;99.90;;;;;;4979406;28;20027;-82
2021/08/19 03:41:18;;;;;;;2.20;0.57;;;16.00;99.90;;;;;;4979588;28;20038;-82
2021/08/19 03:43:47;;;;;;;2.85;0.85;;;16.00;99.90;;;;;;4996531;28;20027;-83
2021/08/19 03:46:14;;;;;;;1.42;0.60;;;16.00;99.90;;;;;;4979341;28;20510;-82
2021/08/19 03:48:40;;;;;;;2.50;0.77;;;16.00;99.90;;;;;;4995411;28;20034;-83
2021/08/19 03:51:07;;;;;;;1.60;0.70;;;16.00;99.90;;;;;;4997033;28;20034;-83
2021/08/19 03:53:34;;;;;;;1.88;0.80;;;16.00;99.90;;;;;;4997917;28;20116;-83
2021/08/19 03:55:59;;;;;;;2.40;0.70;;;16.10;99.90;;;;;;5025481;28;20638;-83
2021/08/19 03:58:25;;;;;;;1.58;0.80;;;16.10;99.90;;;;;;4995852;28;20030;-83
2021/08/19 04:00:51;;;;;;;3.13;1.02;;;16.00;99.90;;;;;;4978127;28;20022;-83
2021/08/19 04:03:17;;;;;;;1.35;0.70;;;16.10;99.90;;;;;;4977951;28;20018;-82
2021/08/19 04:05:43;;;;;;;3.05;0.70;;;16.10;99.90;;;;;;5003310;28;20384;-83
2021/08/19 04:08:08;;;;;;;2.25;0.93;;;16.00;99.90;;;;;;5013496;28;20388;-82
2021/08/19 04:10:34;;;;;;;3.67;0.80;;;16.00;99.90;;;;;;4997073;28;20068;-82
2021/08/19 04:13:00;;;;;;;2.83;0.98;;;16.00;99.90;;;;;;4986262;28;20030;-82
2021/08/19 04:15:26;;;;;;;1.90;0.90;;;16.10;99.90;;;;;;4977550;28;20056;-82
2021/08/19 04:17:52;;;;;;;2.45;0.60;;;16.00;99.90;;;;;;4995121;28;20062;-82
2021/08/19 04:20:19;;;;;;;1.83;0.90;;;16.10;99.90;;;;;;4977404;28;20041;-82
2021/08/19 04:22:45;;;;;;;2.35;0.60;;;16.10;99.90;;;;;;4977281;28;20485;-82
2021/08/19 04:25:11;;;;;;;2.70;0.70;;;16.10;99.90;;;;;;5023937;28;20032;-83
2021/08/19 04:27:37;;;;;;;2.03;0.65;;;16.00;99.90;;;;;;4996800;28;20029;-82
2021/08/19 04:30:04;;;;;;;3.08;1.08;;;16.10;99.90;;;;;;5000824;28;20042;-83
2021/08/19 04:32:29;;;;;;;1.70;0.60;;;16.10;99.90;;;;;;4993520;28;20121;-82
2021/08/19 04:34:55;;;;;;;2.15;0.80;;;16.10;99.90;;;;;;4993890;28;20553;-82
2021/08/19 04:37:21;;;;;;;1.55;0.70;;;16.00;99.90;;;;;;4977111;28;20138;-82
2021/08/19 04:39:47;;;;;;;2.35;0.60;;;16.10;99.90;;;;;;4992867;28;20038;-82
2021/08/19 04:42:13;;;;;;;0.93;0.52;;;16.00;99.90;;;;;;4992999;28;20740;-83
2021/08/19 04:44:38;;;;;;;1.73;0.60;;;16.00;99.90;;;;;;4995418;28;20030;-83
2021/08/19 04:47:04;;;;;;;1.40;0.70;;;16.00;99.90;;;;;;5012114;28;20029;-83
2021/08/19 04:49:30;;;;;;;1.63;0.65;;;15.90;99.90;;;;;;5007501;28;20068;-83
2021/08/19 04:51:55;;;;;;;1.50;0.63;;;15.90;99.90;;;;;;5015806;28;20040;-82
2021/08/19 04:54:21;;;;;;;2.42;0.68;;;15.90;99.90;;;;;;5006366;28;20038;-83
2021/08/19 04:56:47;;;;;;;1.98;0.70;;;15.80;99.90;;;;;;4992208;28;20037;-84
2021/08/19 04:59:12;;;;;;;1.65;0.55;;;15.80;99.90;;;;;;4975555;28;20117;-83
2021/08/19 05:01:38;;;;;;;2.63;0.90;;;15.80;99.90;;;;;;4992399;28;20061;-83
2021/08/19 05:04:04;;;;;;;3.28;0.82;;;15.80;99.90;;;;;;4992769;28;20660;-83
2021/08/19 05:06:31;;;;;;;1.83;0.77;;;15.80;99.90;;;;;;5001143;28;20030;-83
2021/08/19 05:08:58;;;;;;;2.25;0.77;;;15.80;99.90;;;;;;5012766;28;20034;-83
2021/08/19 05:11:24;;;;;;;1.55;0.70;;;15.70;99.90;;;;;;5011703;28;20026;-83
2021/08/19 05:13:52;;;;;;;2.33;0.70;;;15.70;99.90;;;;;;5001435;28;20038;-83
2021/08/19 05:16:18;;;;;;;1.95;0.70;;;15.70;99.90;;;;;;4975255;28;20038;-83
2021/08/19 05:18:43;;;;;;;2.17;0.65;;;15.70;99.90;;;;;;4985070;28;20080;-82
2021/08/19 05:21:10;;;;;;;2.42;0.90;;;15.80;99.90;;;;;;5002639;28;20040;-83
2021/08/19 05:23:36;;;;;;;2.55;0.70;;;15.70;99.90;;;;;;5011008;28;20075;-82
2021/08/19 05:26:02;;;;;;;2.45;0.80;;;15.70;99.90;;;;;;5004187;28;20030;-83
2021/08/19 05:28:28;;;;;;;2.30;0.57;;;15.80;99.90;;;;;;5030568;28;20021;-82
2021/08/19 05:30:53;;;;;;;1.90;0.77;;;15.70;99.90;;;;;;5026920;28;20548;-82
2021/08/19 05:33:19;;;;;;;1.15;0.60;;;15.90;99.90;;;;;;5018224;28;20076;-83
2021/08/19 05:35:45;;;;;;;2.05;0.80;;;15.80;99.90;;;;;;5020666;28;20105;-83
2021/08/19 05:38:11;;;;;;;1.67;0.70;;;15.90;99.90;;;;;;5011696;28;20072;-83
2021/08/19 05:40:36;;;;;;;2.05;0.77;;;15.90;99.90;;;;;;5012856;28;20108;-83
2021/08/19 05:43:02;;;;;;;3.30;0.68;;;15.90;99.90;;;;;;4996879;28;20494;-83
2021/08/19 05:45:28;;;;;;;5.32;0.70;;;16.00;99.90;;;;;;5015937;28;20379;-83
2021/08/19 05:47:54;;;;;;;5.93;0.88;;;16.00;99.90;;;;;;4996845;28;20033;-83
2021/08/19 05:50:22;;;;;;;1.98;0.60;;;16.00;99.90;;;;;;4995241;28;20037;-82
2021/08/19 05:52:48;;;;;;;1.45;0.73;;;16.10;99.90;;;;;;4997181;28;20033;-83
2021/08/19 05:55:14;;;;;;;1.92;0.57;;;16.10;99.90;;;;;;4996705;28;20038;-82
2021/08/19 05:57:39;;;;;;;2.15;0.63;;;16.20;99.90;;;;;;5012124;28;20474;-82
2021/08/19 06:00:06;;;;;;;2.15;0.80;;;16.20;99.90;;;;;;5014543;28;20097;-82
2021/08/19 06:02:32;;;;;;;3.70;0.93;;;16.20;99.90;;;;;;4998714;28;20101;-83
2021/08/19 06:04:59;;;;;;;4.07;0.70;;;16.20;99.90;;;;;;4996093;28;20570;-82
2021/08/19 06:07:24;;;;;;;1.70;0.70;;;16.20;99.90;;;;;;5012624;28;20072;-83
2021/08/19 06:09:50;;;;;;;1.35;0.60;;;16.30;99.90;;;;;;5013647;28;20092;-82
2021/08/19 06:12:16;;;;;;;2.70;0.70;;;16.30;99.90;;;;;;4996718;28;20494;-82
2021/08/19 06:14:42;;;;;;;2.15;0.70;;;16.30;99.90;;;;;;4996924;28;20037;-83
2021/08/19 06:17:07;;;;;;;1.92;0.60;;;16.40;99.90;;;;;;4995589;28;20026;-82
2021/08/19 06:19:33;;;;;;;2.15;1.00;;;16.40;99.90;;;;;;5015182;28;20037;-82
2021/08/19 06:21:59;;;;;;;2.47;0.70;;;16.40;99.90;;;;;;5014169;28;20096;-82
2021/08/19 06:24:24;;;;;;;2.15;0.68;;;16.50;99.90;;;;;;5015262;28;20057;-82
2021/08/19 06:26:50;;;;;;;1.15;0.50;;;16.50;99.90;;;;;;4995047;28;20022;-82
2021/08/19 06:29:16;;;;;;;1.33;0.52;;;16.60;99.90;;;;;;5011401;28;20045;-82
2021/08/19 06:31:41;;;;;;;5.50;0.93;;;16.60;99.90;;;;;;5014723;28;20061;-82
2021/08/19 06:34:07;;;;;;;1.80;0.65;;;16.70;99.90;;;;;;5012270;28;20026;-82
2021/08/19 06:36:33;;;;;;;2.55;0.60;;;16.80;99.90;;;;;;5019872;28;20085;-82
2021/08/19 06:38:58;;;;;;;3.25;0.80;;;16.90;99.90;;;;;;5014991;28;20030;-82
2021/08/19 06:41:25;;;;;;;3.17;0.63;;;16.90;99.90;;;;;;4999665;28;20068;-82
2021/08/19 06:43:51;;;;;;;1.83;0.70;;;17.00;99.90;;;;;;4997751;28;20022;-82
2021/08/19 06:46:17;;;;;;;2.30;0.65;;;17.00;99.90;;;;;;5016462;28;20363;-82
2021/08/19 06:48:43;;;;;;;1.95;0.68;;;17.10;99.90;;;;;;4990827;28;20041;-82
2021/08/19 06:51:08;;;;;;;1.90;0.60;;;17.00;99.90;;;;;;5013022;28;20034;-82
2021/08/19 06:53:35;;;;;;;1.80;0.70;;;17.10;99.90;;;;;;5002602;28;20434;-81
2021/08/19 06:56:02;;;;;;;1.77;0.80;;;17.10;99.90;;;;;;5017353;28;20103;-81
2021/08/19 06:58:28;;;;;;;2.53;0.70;;;17.30;99.90;;;;;;5014750;28;20389;-81
2021/08/19 07:00:54;;;;;;;1.90;0.68;;;17.40;99.90;;;;;;5014388;28;20029;-83
2021/08/19 07:03:19;;;;;;;3.03;0.70;;;17.50;99.90;;;;;;4996883;28;20026;-82
2021/08/19 07:05:45;;;;;;;2.00;0.80;;;17.50;99.90;;;;;;5015619;28;20036;-84
2021/08/19 07:08:12;;;;;;;2.38;0.60;;;17.50;99.90;;;;;;4998218;28;20080;-85
2021/08/19 07:10:38;;;;;;;1.10;0.60;;;17.70;99.90;;;;;;5017307;28;20562;-84
2021/08/19 07:13:04;;;;;;;1.90;0.52;;;17.50;99.90;;;;;;5011883;28;20038;-85
2021/08/19 07:15:31;;;;;;;2.33;0.80;;;17.50;99.90;;;;;;4997376;28;20034;-85
2021/08/19 07:17:57;;;;;;;1.58;0.63;;;17.60;99.90;;;;;;5013775;28;20030;-85
2021/08/19 07:20:23;;;;;;;1.00;0.47;;;17.70;99.90;;;;;;5014835;28;20116;-85
2021/08/19 07:22:49;;;;;;;3.20;0.88;;;17.70;99.90;;;;;;4997084;28;20026;-85
2021/08/19 07:25:17;;;;;;;2.92;0.73;;;17.80;99.90;;;;;;4994540;28;20034;-85
2021/08/19 07:27:43;;;;;;;1.70;0.60;;;17.90;99.90;;;;;;4997562;28;20032;-85
2021/08/19 07:30:10;;;;;;;3.53;0.63;;;17.90;99.90;;;;;;5024899;28;20390;-85
2021/08/19 07:32:36;;;;;;;2.50;0.70;;;18.10;99.90;;;;;;5014044;28;20041;-84
2021/08/19 07:35:03;;;;;;;3.22;0.90;;;18.10;99.90;;;;;;5017991;28;20066;-83
2021/08/19 07:37:30;;;;;;;3.03;0.50;;;18.20;99.90;;;;;;5026440;28;20030;-84
2021/08/19 07:39:56;;;;;;;2.17;0.55;;;18.20;99.90;;;;;;5003809;28;20030;-84
2021/08/19 07:42:22;;;;;;;1.75;0.55;;;18.20;99.90;;;;;;5011828;28;20521;-84
2021/08/19 07:44:47;;;;;;;1.55;0.63;;;18.40;99.90;;;;;;5014080;28;20540;-84
2021/08/19 07:47:13;;;;;;;2.42;0.57;;;18.50;99.90;;;;;;5014885;28;20108;-84
2021/08/19 07:49:39;;;;;;;3.10;0.80;;;18.70;99.90;;;;;;4996789;28;20039;-84
2021/08/19 07:52:06;;;;;;;1.23;0.60;;;18.90;99.90;;;;;;5013481;28;20041;-86
2021/08/19 07:54:31;;;;;;;1.33;0.57;;;19.10;99.90;;;;;;4998123;28;20026;-86
2021/08/19 07:56:57;;;;;;;1.20;0.50;;;19.20;99.90;;;;;;5011369;28;20038;-84
2021/08/19 07:59:23;;;;;;;1.55;0.57;;;19.20;99.90;;;;;;5014225;28;20026;-84
2021/08/19 08:01:51;;;;;;;1.83;0.60;;;19.20;99.90;;;;;;4995617;28;20034;-85
2021/08/19 08:04:17;;;;;;;2.38;0.55;;;19.20;99.90;;;;;;4988611;28;20016;-84
2021/08/19 08:06:44;;;;;;;2.08;0.68;;;19.30;99.90;;;;;;5017210;28;20017;-84
2021/08/19 08:09:11;;;;;;;2.17;0.55;;;19.40;99.90;;;;;;5004359;28;20495;-85
2021/08/19 08:11:38;;;;;;;1.63;0.80;;;19.40;99.90;;;;;;5006226;28;20071;-85
2021/08/19 08:14:04;;;;;;;3.40;0.98;;;19.30;99.90;;;;;;4989826;28;20030;-84
2021/08/19 08:16:29;;;;;;;1.65;0.77;;;19.30;99.90;;;;;;4985699;28;20080;-85
2021/08/19 08:18:55;;;;;;;2.65;0.60;;;19.40;99.90;;;;;;4988530;28;20048;-85
2021/08/19 08:21:21;;;;;;;2.42;0.60;;;19.40;99.90;;;;;;5016605;28;20109;-84
2021/08/19 08:23:48;;;;;;;4.25;0.70;;;19.50;99.90;;;;;;5015865;28;20044;-85
2021/08/19 08:26:14;;;;;;;1.77;0.55;;;19.60;99.90;;;;;;5001762;28;20026;-86
2021/08/19 08:28:40;;;;;;;1.95;0.70;;;19.50;99.90;;;;;;5029724;28;20025;-86
2021/08/19 08:31:07;;;;;;;2.85;0.50;;;19.50;99.90;;;;;;4992590;28;20037;-86
2021/08/19 08:33:34;;;;;;;1.55;0.60;;;19.70;99.90;;;;;;5000027;28;20494;-86
2021/08/19 08:36:00;;;;;;;2.63;0.50;;;19.80;99.90;;;;;;4997316;28;20041;-87
2021/08/19 08:38:27;;;;;;;1.80;0.70;;;19.90;99.90;;;;;;4993927;28;20022;-86
2021/08/19 08:40:53;;;;;;;2.80;0.88;;;20.00;99.90;;;;;;5006910;28;20029;-87
2021/08/19 08:43:21;;;;;;;2.30;0.70;;;19.90;99.90;;;;;;5025734;28;20037;-86
2021/08/19 08:45:48;;;;;;;3.92;0.57;;;20.20;99.90;;;;;;5028689;28;20026;-87
2021/08/19 08:48:25;;;;;;;1.15;0.60;;;20.20;99.90;;;;;;5014781;28;20545;-87
2021/08/19 08:50:53;;;;;;;2.50;0.75;;;20.20;99.90;;;;;;5004890;28;20030;-85
2021/08/19 08:53:20;;;;;;;2.03;0.70;;;20.30;99.90;;;;;;4996548;28;20656;-86
2021/08/19 08:55:46;;;;;;;2.22;0.70;;;20.40;99.90;;;;;;5012971;22;20053;-82
2021/08/19 08:58:12;;;;;;;2.05;0.60;;;20.40;99.90;;;;;;5028767;28;20036;-82
2021/08/19 09:00:43;;;;;;;1.85;0.50;;;20.20;99.90;;;;;;5051208;28;20021;-83
2021/08/19 09:03:10;;;;;;;;;;;20.40;99.90;;;;;;5045784;28;20048;-81
2021/08/19 09:05:44;;;;;;;2.83;0.85;;;20.40;99.90;;;;;;5029062;28;19913;-81
2021/08/19 09:08:18;;;;;;;1.95;0.60;;;20.50;99.90;;;;;;5025974;28;20037;-80
2021/08/19 09:10:45;;;;;;;3.15;0.68;;;20.60;99.90;;;;;;5033582;28;20114;-82
2021/08/19 09:13:17;;;;;;;1.85;0.55;;;20.70;99.90;;;;;;5039626;28;20038;-80
2021/08/19 09:15:43;;;;;;;;;;;20.70;99.90;;;;;;5039089;28;20052;-81
2021/08/19 09:18:12;;;;;;;1.65;0.52;;;20.70;99.90;;;;;;5020295;28;19942;-80
2021/08/19 09:20:40;;;;;;;1.30;0.45;;;20.50;99.90;;;;;;5033488;28;20048;-83
2021/08/19 09:23:14;;;;;;;2.17;0.70;;;20.40;99.90;;;;;;5036137;28;20096;-79
2021/08/19 09:25:42;;;;;;;1.05;0.50;;;20.40;99.90;;;;;;5033137;28;20021;-82
2021/08/19 09:28:07;;;;;;;2.05;0.60;;;20.50;99.90;;;;;;5007974;28;20048;-81
2021/08/19 09:30:34;;;;;;;1.42;0.60;;;20.60;99.90;;;;;;5040041;28;20029;-81
2021/08/19 09:33:02;;;;;;;1.65;0.68;;;20.60;99.90;;;;;;5020080;28;20029;-81
2021/08/19 09:35:30;;;;;;;0.90;0.40;;;20.50;99.90;;;;;;5008176;28;20040;-83
2021/08/19 09:37:56;;;;;;;1.08;0.63;;;20.50;99.90;;;;;;5018874;28;20112;-81
2021/08/19 09:40:21;;;;;;;3.03;0.82;;;20.60;99.90;;;;;;5021522;28;20144;-81
2021/08/19 09:42:47;;;;;;;1.48;0.60;;;20.80;99.90;;;;;;5038142;28;20028;-82
2021/08/19 09:45:21;;;;;;;1.40;0.60;;;20.80;99.90;;;;;;5012541;28;20021;-82
2021/08/19 09:47:47;;;;;;;2.17;0.50;;;20.80;99.90;;;;;;5017119;28;20552;-82
2021/08/19 09:50:23;;;;;;;2.65;0.70;;;20.80;99.90;;;;;;5019240;28;20029;-83
2021/08/19 09:52:50;;;;;;;2.17;0.80;;;20.70;99.90;;;;;;5018441;28;20026;-83
2021/08/19 09:55:23;;;;;;;2.20;0.70;;;20.60;99.90;;;;;;5019123;28;20037;-82
2021/08/19 09:57:49;;;;;;;1.77;0.52;;;20.70;99.90;;;;;;5018300;28;20030;-83
2021/08/19 10:00:40;;;;;;;2.05;0.82;;;20.60;99.90;;;;;;5019680;28;20033;-84
2021/08/19 10:03:05;;;;;;;1.48;0.50;;;20.50;99.90;;;;;;5027004;28;20029;-82
2021/08/19 10:05:31;;;;;;;1.08;0.43;;;20.60;99.90;;;;;;5036176;28;20390;-82
2021/08/19 10:08:00;;;;;;;1.95;0.52;;;20.70;99.90;;;;;;5015973;28;20084;-81
2021/08/19 10:10:27;;;;;;;2.10;0.57;;;20.80;99.90;;;;;;5040979;28;20028;-83
2021/08/19 10:12:57;;;;;;;2.03;0.57;;;20.90;99.90;;;;;;5018810;28;20071;-83
2021/08/19 10:15:27;;;;;;;1.92;0.43;;;21.20;99.90;;;;;;5041056;28;20029;-83
2021/08/19 10:17:55;;;;;;;1.52;0.30;;;21.30;99.90;;;;;;5037331;28;20021;-83
2021/08/19 10:20:41;;;;;;;1.08;0.40;;;21.30;99.90;;;;;;5037319;28;20026;-81
2021/08/19 10:23:08;;;;;;;1.27;0.40;;;21.60;99.90;;;;;;5049496;28;20021;-83
2021/08/19 10:25:34;;;;;;;1.00;0.40;;;21.70;99.90;;;;;;5042630;28;20052;-84
2021/08/19 10:28:20;;;;;;;2.25;0.40;;;21.90;99.90;;;;;;5049021;28;20090;-83
2021/08/19 10:30:47;;;;;;;0.80;0.40;;;22.00;99.90;;;;;;5039518;28;20756;-83
2021/08/19 10:33:36;;;;;;;1.05;0.40;;;22.30;99.90;;;;;;5024610;28;20115;-83
2021/08/19 10:36:10;;;;;;;0.82;0.32;;;22.50;99.90;;;;;;5040864;28;20034;-83
2021/08/19 10:38:40;;;;;;;1.75;0.30;;;22.60;99.90;;;;;;5039592;28;20519;-84
2021/08/19 10:41:32;;;;;;;0.63;0.20;;;22.60;99.90;;;;;;5019482;28;20442;-84
2021/08/19 10:44:09;;;;;;;1.45;0.30;;;22.60;99.90;;;;;;5020017;28;20038;-83
2021/08/19 10:46:44;;;;;;;3.78;0.57;;;22.70;99.90;;;;;;5026781;28;20575;-84
2021/08/19 10:49:32;;;;;;;1.45;0.40;;;22.20;99.90;;;;;;5036144;28;20052;-80
2021/08/19 10:52:12;;;;;;;1.05;0.50;;;22.10;99.90;;;;;;5031670;28;20135;-84
2021/08/19 10:54:43;;;;;;;1.77;0.57;;;22.20;99.90;;;;;;5038319;28;20777;-82
2021/08/19 10:57:24;;;;;;;1.50;0.57;;;22.30;99.90;;;;;;5021894;28;20037;-82
2021/08/19 10:59:59;;;;;;;2.28;0.90;;;22.50;99.90;;;;;;5037284;28;20017;-83
2021/08/19 11:02:43;;;;;;;3.45;0.80;;;22.70;99.90;;;;;;5044336;28;20486;-83
2021/08/19 11:05:14;;;;;;;2.70;1.10;;;23.00;99.90;;;;;;5031926;28;20505;-83
2021/08/19 11:07:59;;;;;;;1.93;0.50;;;22.60;99.90;;;;;;5044787;28;20025;-83
2021/08/19 11:10:30;;;;;;;2.95;0.52;;;22.50;99.90;;;;;;5049422;28;20025;-84
2021/08/19 11:13:09;;;;;;;1.75;0.55;;;22.20;99.90;;;;;;5024631;28;20476;-84
2021/08/19 11:15:45;;;;;;;1.63;0.60;;;22.50;99.90;;;;;;5024257;28;20044;-84
2021/08/19 11:18:22;;;;;;;1.77;0.60;;;22.40;99.90;;;;;;5037950;28;20021;-82
2021/08/19 11:20:48;;;;;;;2.05;0.35;;;22.70;99.90;;;;;;5044922;28;20087;-84
2021/08/19 11:23:13;;;;;;;2.20;0.60;;;22.80;99.90;;;;;;5028406;28;20026;-83
2021/08/19 11:25:42;;;;;;;1.02;0.45;;;22.70;99.90;;;;;;5028620;28;20603;-82
2021/08/19 11:28:15;;;;;;;2.20;0.60;;;22.50;99.90;;;;;;5042253;28;20039;-83
2021/08/19 11:30:46;;;;;;;2.80;0.50;;;22.50;99.90;;;;;;5041283;28;20409;-84
2021/08/19 11:33:17;;;;;;;1.60;0.52;;;22.60;99.90;;;;;;5046590;28;20029;-84
2021/08/19 11:35:45;;;;;;;1.73;0.50;;;22.60;99.90;;;;;;5018888;28;20034;-83
2021/08/19 11:38:17;;;;;;;1.63;0.60;;;22.60;99.90;;;;;;5037797;28;20026;-81
2021/08/19 11:40:44;;;;;;;;;;;22.60;99.90;;;;;;5011736;28;20303;-82
2021/08/19 11:43:28;;;;;;;1.23;0.43;;;22.40;99.90;;;;;;5036830;28;19909;-83
2021/08/19 11:46:11;;;;;;;3.00;0.50;;;22.30;99.90;;;;;;5042813;28;20085;-84
2021/08/19 11:48:47;;;;;;;1.58;0.40;;;22.30;99.90;;;;;;5026845;28;20029;-84
2021/08/19 11:51:25;;;;;;;1.02;0.43;;;22.10;99.90;;;;;;5040020;28;20022;-84
2021/08/19 11:53:53;;;;;;;0.95;0.45;;;22.20;99.90;;;;;;5031584;28;20025;-84
2021/08/19 11:56:19;;;;;;;1.80;0.70;;;22.20;99.90;;;;;;5028974;28;20030;-85
2021/08/19 11:58:47;;;;;;;1.58;0.70;;;22.20;99.90;;;;;;5039357;28;20509;-84
2021/08/19 12:01:13;;;;;;;1.45;0.50;;;22.10;99.90;;;;;;5020210;28;20029;-84
2021/08/19 12:03:45;;;;;;;0.93;0.38;;;22.00;99.90;;;;;;5025991;28;20034;-85
2021/08/19 12:06:10;;;;;;;;;;;22.20;99.90;;;;;;5032549;28;20033;-80
2021/08/19 12:08:38;;;;;;;1.15;0.50;;;22.50;99.90;;;;;;5027771;28;19932;-83
2021/08/19 12:11:07;;;;;;;2.00;0.57;;;22.80;99.90;;;;;;5039571;28;20072;-80
2021/08/19 12:13:39;;;;;;;2.40;0.50;;;22.90;99.90;;;;;;5033311;28;20030;-82
2021/08/19 12:16:05;;;;;;;1.17;0.40;;;23.10;99.90;;;;;;5037491;28;20093;-81
2021/08/19 12:18:31;;;;;;;1.27;0.50;;;23.00;99.90;;;;;;5020568;28;20513;-82
2021/08/19 12:21:22;;;;;;;1.13;0.50;;;23.10;99.90;;;;;;5041536;28;20030;-83
2021/08/19 12:23:48;;;;;;;2.03;0.70;;;23.30;99.90;;;;;;5023706;28;20037;-82
2021/08/19 12:26:16;;;;;;;1.38;0.70;;;23.40;99.90;;;;;;5042109;28;20013;-82
2021/08/19 12:28:57;;;;;;;1.55;0.57;;;23.40;99.80;;;;;;5042423;28;20060;-81
2021/08/19 12:31:42;;;;;;;2.28;0.70;;;23.20;99.60;;;;;;5041009;28;20033;-84
2021/08/19 12:34:07;;;;;;;1.25;0.60;;;23.10;99.90;;;;;;5031741;28;20511;-82
2021/08/19 12:36:34;;;;;;;1.15;0.60;;;23.20;99.90;;;;;;5020588;28;20055;-81
2021/08/19 12:39:35;;;;;;;4.60;0.73;;;23.00;99.90;;;;;;5022592;28;20095;-82
2021/08/19 12:42:06;;;;;;;1.23;0.40;;;22.70;99.90;;;;;;4962321;28;20038;-82
2021/08/19 12:44:31;;;;;;;1.00;0.50;;;22.90;99.90;;;;;;5035846;28;20025;-84
2021/08/19 12:47:00;;;;;;;1.15;0.50;;;22.90;99.90;;;;;;5017439;28;20049;-83
2021/08/19 12:49:37;;;;;;;2.30;0.60;;;23.10;99.90;;;;;;5041014;28;20039;-83
2021/08/19 12:52:22;;;;;;;1.10;0.50;;;22.90;99.90;;;;;;5023250;28;20237;-82